createdAt,value
2017-07-02T00:00:00.882Z,14.48
2017-07-02T00:00:29.062Z,14.45
2017-07-02T00:00:57.155Z,14.45
2017-07-02T00:01:25.148Z,14.44
2017-07-02T00:01:53.262Z,14.45
2017-07-02T00:02:21.397Z,14.46
2017-07-02T00:02:49.495Z,14.51
2017-07-02T00:03:17.626Z,14.45
2017-07-02T00:03:45.814Z,14.49
2017-07-02T00:04:14.050Z,14.44
2017-07-02T00:04:42.164Z,14.46
2017-07-02T00:05:10.317Z,14.45
2017-07-02T00:05:38.517Z,14.46
2017-07-02T00:06:06.639Z,14.48
2017-07-02T00:06:34.835Z,14.49
2017-07-02T00:07:03.072Z,14.41
2017-07-02T00:07:31.354Z,14.42
2017-07-02T00:07:59.575Z,14.44
2017-07-02T00:08:27.757Z,14.41
2017-07-02T00:08:55.910Z,14.39
2017-07-02T00:09:24.236Z,14.41
2017-07-02T00:09:52.462Z,14.3
2017-07-02T00:10:20.535Z,14.38
2017-07-02T00:10:48.745Z,14.33
2017-07-02T00:11:16.732Z,14.39
2017-07-02T00:11:44.810Z,14.39
2017-07-02T00:12:13.008Z,14.39
2017-07-02T00:12:41.089Z,14.42
2017-07-02T00:13:09.145Z,14.38
2017-07-02T00:13:37.262Z,14.42
2017-07-02T00:14:05.383Z,14.39
2017-07-02T00:14:33.676Z,14.36
2017-07-02T00:15:01.626Z,14.41
2017-07-02T00:15:29.757Z,14.46
2017-07-02T00:15:57.975Z,14.33
2017-07-02T00:16:26.008Z,14.34
2017-07-02T00:16:54.189Z,14.36
2017-07-02T00:17:22.310Z,14.33
2017-07-02T00:17:50.439Z,14.36
2017-07-02T00:18:18.663Z,14.34
2017-07-02T00:18:46.894Z,14.41
2017-07-02T00:19:15.097Z,14.33
2017-07-02T00:19:43.346Z,14.34
2017-07-02T00:20:11.394Z,14.31
2017-07-02T00:20:39.580Z,14.34
2017-07-02T00:21:07.687Z,14.34
2017-07-02T00:21:35.876Z,14.28
2017-07-02T00:22:04.157Z,14.31
2017-07-02T00:22:32.336Z,14.31
2017-07-02T00:23:00.415Z,14.36
2017-07-02T00:23:28.677Z,14.31
2017-07-02T00:23:56.958Z,14.38
2017-07-02T00:24:25.257Z,14.36
2017-07-02T00:24:53.217Z,14.36
2017-07-02T00:25:21.417Z,14.38
2017-07-02T00:25:49.609Z,14.33
2017-07-02T00:26:17.757Z,14.36
2017-07-02T00:26:46.029Z,14.39
2017-07-02T00:27:14.133Z,14.36
2017-07-02T00:27:42.142Z,14.31
2017-07-02T00:28:10.389Z,14.3
2017-07-02T00:28:38.523Z,14.2
2017-07-02T00:29:06.518Z,14.2
2017-07-02T00:29:35.675Z,14.2
2017-07-02T00:30:04.063Z,14.19
2017-07-02T00:30:32.227Z,14.23
2017-07-02T00:31:00.456Z,14.16
2017-07-02T00:31:28.663Z,14.13
2017-07-02T00:31:56.765Z,14.16
2017-07-02T00:32:24.810Z,14.12
2017-07-02T00:32:53.105Z,14.12
2017-07-02T00:33:21.328Z,14.12
2017-07-02T00:33:49.552Z,14.09
2017-07-02T00:34:17.727Z,14.08
2017-07-02T00:34:46.105Z,14.09
2017-07-02T00:35:14.309Z,14.12
2017-07-02T00:35:42.441Z,14.12
2017-07-02T00:36:10.540Z,14.05
2017-07-02T00:36:38.686Z,14.09
2017-07-02T00:37:06.938Z,14.11
2017-07-02T00:37:35.206Z,14.13
2017-07-02T00:38:05.941Z,14.12
2017-07-02T00:38:34.721Z,14.11
2017-07-02T00:39:02.947Z,14.09
2017-07-02T00:39:31.232Z,14.09
2017-07-02T00:39:59.469Z,14.06
2017-07-02T00:40:27.558Z,14.08
2017-07-02T00:40:55.778Z,14.13
2017-07-02T00:41:23.910Z,13.95
2017-07-02T00:41:52.034Z,14.06
2017-07-02T00:42:20.269Z,14.08
2017-07-02T00:42:48.261Z,13.93
2017-07-02T00:43:16.405Z,13.95
2017-07-02T00:43:44.531Z,13.94
2017-07-02T00:44:12.653Z,13.97
2017-07-02T00:44:41.011Z,13.97
2017-07-02T00:45:09.234Z,13.93
2017-07-02T00:45:37.241Z,13.95
2017-07-02T00:46:05.433Z,13.9
2017-07-02T00:46:33.466Z,13.95
2017-07-02T00:47:01.593Z,13.88
2017-07-02T00:47:29.673Z,13.88
2017-07-02T00:47:57.808Z,13.9
2017-07-02T00:48:25.860Z,13.91
2017-07-02T00:48:53.962Z,13.88
2017-07-02T00:49:22.084Z,13.9
2017-07-02T00:49:50.327Z,13.94
2017-07-02T00:50:19.175Z,13.87
2017-07-02T00:50:47.085Z,13.91
2017-07-02T00:51:15.198Z,13.93
2017-07-02T00:51:43.184Z,13.9
2017-07-02T00:52:11.200Z,13.94
2017-07-02T00:52:39.250Z,14.01
2017-07-02T00:53:07.467Z,13.97
2017-07-02T00:53:35.680Z,13.95
2017-07-02T00:54:03.784Z,13.93
2017-07-02T00:54:31.927Z,14.01
2017-07-02T00:55:00.349Z,13.99
2017-07-02T00:55:28.582Z,13.95
2017-07-02T00:55:56.628Z,14.05
2017-07-02T00:56:24.760Z,14.11
2017-07-02T00:56:52.868Z,13.93
2017-07-02T00:57:21.063Z,14.03
2017-07-02T00:57:49.296Z,14.06
2017-07-02T00:58:17.326Z,14.06
2017-07-02T00:58:45.507Z,14.06
2017-07-02T00:59:13.641Z,14.06
2017-07-02T00:59:41.561Z,14.05
2017-07-02T01:00:09.958Z,14.08
2017-07-02T01:00:38.055Z,14.11
2017-07-02T01:01:06.224Z,14.06
2017-07-02T01:01:34.267Z,14.13
2017-07-02T01:02:02.279Z,14.09
2017-07-02T01:02:30.256Z,14.09
2017-07-02T01:02:58.434Z,14.09
2017-07-02T01:03:26.599Z,14.13
2017-07-02T01:03:54.719Z,14.09
2017-07-02T01:04:22.924Z,14.06
2017-07-02T01:04:51.299Z,14.06
2017-07-02T01:05:19.505Z,14.08
2017-07-02T01:05:47.744Z,14.12
2017-07-02T01:06:15.986Z,14.11
2017-07-02T01:06:44.177Z,14.09
2017-07-02T01:07:12.382Z,14.03
2017-07-02T01:07:40.418Z,14.05
2017-07-02T01:08:08.615Z,14.09
2017-07-02T01:08:36.822Z,14.09
2017-07-02T01:09:04.911Z,14.06
2017-07-02T01:09:32.914Z,14.09
2017-07-02T01:10:01.179Z,14.11
2017-07-02T01:10:29.446Z,14.12
2017-07-02T01:10:57.434Z,14.06
2017-07-02T01:11:25.466Z,14.12
2017-07-02T01:11:53.607Z,14.2
2017-07-02T01:12:21.859Z,14.12
2017-07-02T01:12:49.993Z,14.06
2017-07-02T01:13:18.113Z,14.12
2017-07-02T01:13:46.226Z,14.13
2017-07-02T01:14:14.341Z,14.12
2017-07-02T01:14:42.602Z,14.12
2017-07-02T01:15:10.819Z,14.12
2017-07-02T01:15:38.854Z,14.11
2017-07-02T01:16:07.002Z,14.08
2017-07-02T01:16:35.208Z,14.11
2017-07-02T01:17:06.075Z,14.09
2017-07-02T01:17:34.322Z,14.09
2017-07-02T01:18:02.777Z,14.08
2017-07-02T01:18:30.912Z,14.05
2017-07-02T01:18:59.048Z,14.13
2017-07-02T01:19:27.198Z,14.11
2017-07-02T01:19:55.477Z,14.05
2017-07-02T01:20:23.840Z,14.13
2017-07-02T01:20:51.978Z,14.13
2017-07-02T01:21:20.232Z,14.11
2017-07-02T01:21:48.493Z,14.13
2017-07-02T01:22:16.748Z,14.11
2017-07-02T01:22:45.512Z,14.11
2017-07-02T01:23:14.200Z,14.11
2017-07-02T01:23:42.435Z,14.06
2017-07-02T01:24:10.668Z,14.11
2017-07-02T01:24:39.036Z,14.01
2017-07-02T01:25:07.361Z,14.11
2017-07-02T01:25:35.586Z,14.09
2017-07-02T01:26:03.663Z,14.02
2017-07-02T01:26:32.074Z,14.11
2017-07-02T01:27:00.201Z,13.99
2017-07-02T01:27:28.227Z,14.06
2017-07-02T01:27:56.591Z,14.01
2017-07-02T01:28:24.832Z,13.93
2017-07-02T01:28:52.920Z,13.93
2017-07-02T01:29:20.904Z,13.95
2017-07-02T01:29:49.050Z,14.03
2017-07-02T01:30:17.324Z,13.97
2017-07-02T01:30:45.402Z,14.01
2017-07-02T01:31:13.444Z,13.99
2017-07-02T01:31:41.642Z,13.99
2017-07-02T01:32:09.818Z,13.99
2017-07-02T01:32:37.956Z,13.99
2017-07-02T01:33:06.183Z,13.94
2017-07-02T01:33:34.318Z,13.99
2017-07-02T01:34:02.406Z,13.99
2017-07-02T01:34:30.431Z,13.94
2017-07-02T01:34:58.419Z,13.99
2017-07-02T01:35:26.731Z,13.95
2017-07-02T01:35:54.756Z,13.97
2017-07-02T01:36:22.989Z,13.95
2017-07-02T01:36:51.255Z,14.01
2017-07-02T01:37:19.454Z,13.99
2017-07-02T01:37:47.698Z,13.99
2017-07-02T01:38:15.892Z,13.99
2017-07-02T01:38:43.911Z,14.06
2017-07-02T01:39:12.041Z,14.02
2017-07-02T01:39:40.287Z,14.09
2017-07-02T01:40:08.446Z,14.03
2017-07-02T01:40:36.710Z,14.03
2017-07-02T01:41:04.816Z,14.03
2017-07-02T01:41:33.031Z,13.97
2017-07-02T01:42:01.278Z,14.09
2017-07-02T01:42:29.342Z,13.99
2017-07-02T01:42:57.465Z,14.03
2017-07-02T01:43:25.570Z,14.02
2017-07-02T01:43:53.723Z,14.03
2017-07-02T01:44:21.918Z,14.08
2017-07-02T01:44:49.911Z,13.99
2017-07-02T01:45:18.191Z,14.01
2017-07-02T01:45:46.315Z,13.97
2017-07-02T01:46:14.347Z,13.93
2017-07-02T01:46:42.540Z,13.95
2017-07-02T01:47:10.778Z,13.93
2017-07-02T01:47:38.932Z,13.99
2017-07-02T01:48:07.138Z,13.94
2017-07-02T01:48:35.366Z,13.94
2017-07-02T01:49:03.574Z,13.99
2017-07-02T01:49:31.793Z,13.97
2017-07-02T01:50:00.044Z,13.95
2017-07-02T01:50:28.388Z,13.94
2017-07-02T01:50:56.601Z,13.95
2017-07-02T01:51:24.639Z,13.91
2017-07-02T01:51:52.730Z,13.94
2017-07-02T01:52:20.909Z,13.94
2017-07-02T01:52:49.032Z,13.87
2017-07-02T01:53:17.273Z,13.91
2017-07-02T01:53:45.167Z,13.86
2017-07-02T01:54:13.310Z,13.94
2017-07-02T01:54:41.528Z,13.91
2017-07-02T01:55:09.668Z,13.94
2017-07-02T01:55:37.978Z,13.88
2017-07-02T01:56:06.187Z,13.93
2017-07-02T01:56:34.407Z,13.88
2017-07-02T01:57:02.532Z,13.84
2017-07-02T01:57:30.625Z,13.88
2017-07-02T01:57:58.616Z,13.88
2017-07-02T01:58:26.680Z,13.9
2017-07-02T01:58:54.923Z,13.86
2017-07-02T01:59:23.118Z,13.86
2017-07-02T01:59:51.166Z,13.87
2017-07-02T02:00:19.371Z,13.9
2017-07-02T02:00:47.703Z,13.94
2017-07-02T02:01:15.586Z,13.93
2017-07-02T02:01:43.620Z,13.84
2017-07-02T02:02:11.629Z,13.87
2017-07-02T02:02:39.742Z,13.93
2017-07-02T02:03:07.959Z,13.87
2017-07-02T02:03:36.195Z,13.94
2017-07-02T02:04:04.394Z,13.9
2017-07-02T02:04:32.429Z,13.9
2017-07-02T02:05:00.739Z,13.91
2017-07-02T02:05:28.858Z,13.86
2017-07-02T02:05:56.944Z,13.88
2017-07-02T02:06:24.855Z,13.84
2017-07-02T02:06:53.100Z,13.81
2017-07-02T02:07:21.229Z,13.87
2017-07-02T02:07:49.460Z,13.79
2017-07-02T02:08:17.692Z,13.79
2017-07-02T02:08:45.840Z,13.73
2017-07-02T02:09:13.930Z,13.75
2017-07-02T02:09:42.053Z,13.81
2017-07-02T02:10:10.166Z,13.73
2017-07-02T02:10:38.267Z,13.73
2017-07-02T02:11:06.417Z,13.76
2017-07-02T02:11:34.516Z,13.69
2017-07-02T02:12:02.436Z,13.73
2017-07-02T02:12:30.640Z,13.75
2017-07-02T02:12:58.756Z,13.73
2017-07-02T02:13:26.970Z,13.69
2017-07-02T02:13:55.092Z,13.69
2017-07-02T02:14:23.274Z,13.69
2017-07-02T02:14:51.282Z,13.7
2017-07-02T02:15:19.411Z,13.69
2017-07-02T02:15:47.749Z,13.7
2017-07-02T02:16:15.976Z,13.66
2017-07-02T02:16:44.031Z,13.69
2017-07-02T02:17:12.124Z,13.72
2017-07-02T02:17:40.305Z,13.72
2017-07-02T02:18:08.453Z,13.7
2017-07-02T02:18:36.675Z,13.75
2017-07-02T02:19:04.859Z,13.69
2017-07-02T02:19:33.088Z,13.7
2017-07-02T02:20:01.153Z,13.7
2017-07-02T02:20:29.353Z,13.7
2017-07-02T02:20:57.520Z,13.65
2017-07-02T02:21:25.833Z,13.75
2017-07-02T02:21:53.861Z,13.65
2017-07-02T02:22:21.969Z,13.75
2017-07-02T02:22:50.047Z,13.63
2017-07-02T02:23:18.161Z,13.68
2017-07-02T02:23:46.192Z,13.66
2017-07-02T02:24:14.326Z,13.63
2017-07-02T02:24:42.489Z,13.68
2017-07-02T02:25:10.697Z,13.63
2017-07-02T02:25:38.919Z,13.57
2017-07-02T02:26:07.073Z,13.62
2017-07-02T02:26:35.092Z,13.62
2017-07-02T02:27:03.209Z,13.66
2017-07-02T02:27:31.253Z,13.63
2017-07-02T02:27:59.294Z,13.68
2017-07-02T02:28:27.407Z,13.62
2017-07-02T02:28:55.652Z,13.58
2017-07-02T02:29:23.741Z,13.63
2017-07-02T02:29:51.755Z,13.66
2017-07-02T02:30:19.945Z,13.72
2017-07-02T02:30:48.096Z,13.69
2017-07-02T02:31:16.208Z,13.73
2017-07-02T02:31:44.227Z,13.75
2017-07-02T02:32:12.351Z,13.7
2017-07-02T02:32:40.334Z,13.68
2017-07-02T02:33:08.383Z,13.69
2017-07-02T02:33:36.490Z,13.75
2017-07-02T02:34:04.592Z,13.72
2017-07-02T02:34:32.706Z,13.7
2017-07-02T02:35:01.107Z,13.73
2017-07-02T02:35:29.156Z,13.78
2017-07-02T02:35:57.511Z,13.65
2017-07-02T02:36:25.580Z,13.72
2017-07-02T02:36:53.673Z,13.75
2017-07-02T02:37:21.621Z,13.72
2017-07-02T02:37:49.677Z,13.75
2017-07-02T02:38:17.818Z,13.75
2017-07-02T02:38:45.974Z,13.75
2017-07-02T02:39:13.909Z,13.65
2017-07-02T02:39:42.085Z,13.7
2017-07-02T02:40:10.197Z,13.76
2017-07-02T02:40:38.309Z,13.78
2017-07-02T02:41:06.719Z,13.73
2017-07-02T02:41:34.874Z,13.7
2017-07-02T02:42:02.895Z,13.73
2017-07-02T02:42:31.014Z,13.68
2017-07-02T02:42:59.270Z,13.72
2017-07-02T02:43:27.415Z,13.81
2017-07-02T02:43:55.653Z,13.76
2017-07-02T02:44:23.801Z,13.78
2017-07-02T02:44:51.849Z,13.76
2017-07-02T02:45:19.961Z,13.73
2017-07-02T02:45:48.099Z,13.75
2017-07-02T02:46:16.298Z,13.76
2017-07-02T02:46:44.374Z,13.78
2017-07-02T02:47:12.619Z,13.72
2017-07-02T02:47:40.536Z,13.79
2017-07-02T02:48:08.538Z,13.7
2017-07-02T02:48:36.634Z,13.75
2017-07-02T02:49:04.844Z,13.76
2017-07-02T02:49:32.920Z,13.72
2017-07-02T02:50:00.948Z,13.73
2017-07-02T02:50:29.193Z,13.75
2017-07-02T02:50:57.312Z,13.73
2017-07-02T02:51:25.769Z,13.69
2017-07-02T02:51:53.813Z,13.79
2017-07-02T02:52:21.967Z,13.73
2017-07-02T02:52:50.079Z,13.84
2017-07-02T02:53:18.180Z,13.7
2017-07-02T02:53:46.394Z,13.76
2017-07-02T02:54:14.522Z,13.75
2017-07-02T02:54:42.736Z,13.79
2017-07-02T02:55:10.877Z,13.75
2017-07-02T02:55:38.956Z,13.75
2017-07-02T02:56:06.860Z,13.73
2017-07-02T02:56:35.018Z,13.75
2017-07-02T02:57:03.192Z,13.75
2017-07-02T02:57:31.333Z,13.75
2017-07-02T02:57:59.446Z,13.72
2017-07-02T02:58:27.599Z,13.78
2017-07-02T02:58:55.640Z,13.66
2017-07-02T02:59:23.836Z,13.73
2017-07-02T02:59:51.952Z,13.7
2017-07-02T03:00:20.047Z,13.69
2017-07-02T03:00:48.040Z,13.69
2017-07-02T03:01:16.279Z,13.72
2017-07-02T03:01:44.302Z,13.7
2017-07-02T03:02:12.396Z,13.68
2017-07-02T03:02:40.493Z,13.76
2017-07-02T03:03:08.631Z,13.75
2017-07-02T03:03:36.750Z,13.76
2017-07-02T03:04:04.850Z,13.75
2017-07-02T03:04:32.991Z,13.79
2017-07-02T03:05:01.196Z,13.65
2017-07-02T03:05:29.457Z,13.73
2017-07-02T03:05:57.643Z,13.7
2017-07-02T03:06:25.858Z,13.76
2017-07-02T03:06:53.982Z,13.72
2017-07-02T03:07:22.182Z,13.75
2017-07-02T03:07:50.179Z,13.7
2017-07-02T03:08:18.429Z,13.68
2017-07-02T03:08:46.576Z,13.66
2017-07-02T03:09:14.697Z,13.68
2017-07-02T03:09:42.951Z,13.6
2017-07-02T03:10:10.967Z,13.65
2017-07-02T03:10:39.099Z,13.57
2017-07-02T03:11:07.242Z,13.65
2017-07-02T03:11:35.551Z,13.65
2017-07-02T03:12:03.772Z,13.6
2017-07-02T03:12:31.818Z,13.6
2017-07-02T03:12:59.988Z,13.58
2017-07-02T03:13:28.060Z,13.68
2017-07-02T03:13:56.265Z,13.58
2017-07-02T03:14:24.426Z,13.68
2017-07-02T03:14:52.529Z,13.68
2017-07-02T03:15:20.734Z,13.6
2017-07-02T03:15:48.762Z,13.6
2017-07-02T03:16:16.888Z,13.58
2017-07-02T03:16:45.071Z,13.58
2017-07-02T03:17:13.209Z,13.53
2017-07-02T03:17:41.325Z,13.58
2017-07-02T03:18:09.550Z,13.5
2017-07-02T03:18:37.517Z,13.48
2017-07-02T03:19:05.652Z,13.53
2017-07-02T03:19:33.733Z,13.5
2017-07-02T03:20:01.734Z,13.51
2017-07-02T03:20:29.835Z,13.47
2017-07-02T03:20:57.780Z,13.48
2017-07-02T03:21:25.862Z,13.48
2017-07-02T03:21:54.234Z,13.5
2017-07-02T03:22:22.265Z,13.47
2017-07-02T03:22:50.323Z,13.51
2017-07-02T03:23:18.483Z,13.48
2017-07-02T03:23:46.635Z,13.54
2017-07-02T03:24:14.903Z,13.44
2017-07-02T03:24:43.125Z,13.5
2017-07-02T03:25:11.265Z,13.4
2017-07-02T03:25:39.375Z,13.45
2017-07-02T03:26:07.495Z,13.53
2017-07-02T03:26:35.810Z,13.51
2017-07-02T03:27:04.028Z,13.53
2017-07-02T03:27:32.252Z,13.51
2017-07-02T03:28:00.493Z,13.53
2017-07-02T03:28:28.476Z,13.53
2017-07-02T03:28:56.725Z,13.47
2017-07-02T03:29:24.930Z,13.51
2017-07-02T03:29:53.051Z,13.53
2017-07-02T03:30:21.185Z,13.53
2017-07-02T03:30:49.288Z,13.53
2017-07-02T03:31:17.391Z,13.53
2017-07-02T03:31:45.760Z,13.51
2017-07-02T03:32:13.777Z,13.5
2017-07-02T03:32:41.883Z,13.51
2017-07-02T03:33:10.005Z,13.54
2017-07-02T03:33:38.046Z,13.53
2017-07-02T03:34:06.114Z,13.48
2017-07-02T03:34:34.321Z,13.5
2017-07-02T03:35:02.527Z,13.57
2017-07-02T03:35:30.631Z,13.57
2017-07-02T03:35:58.789Z,13.53
2017-07-02T03:36:26.926Z,13.54
2017-07-02T03:36:55.148Z,13.55
2017-07-02T03:37:23.400Z,13.62
2017-07-02T03:37:51.548Z,13.58
2017-07-02T03:38:19.651Z,13.55
2017-07-02T03:38:47.758Z,13.54
2017-07-02T03:39:15.939Z,13.5
2017-07-02T03:39:44.194Z,13.53
2017-07-02T03:40:12.216Z,13.55
2017-07-02T03:40:40.424Z,13.62
2017-07-02T03:41:08.629Z,13.51
2017-07-02T03:41:36.770Z,13.57
2017-07-02T03:42:04.843Z,13.6
2017-07-02T03:42:33.063Z,13.58
2017-07-02T03:43:01.294Z,13.62
2017-07-02T03:43:29.462Z,13.54
2017-07-02T03:43:57.997Z,13.6
2017-07-02T03:44:26.045Z,13.62
2017-07-02T03:44:54.261Z,13.62
2017-07-02T03:45:22.418Z,13.51
2017-07-02T03:45:50.668Z,13.58
2017-07-02T03:46:18.798Z,13.6
2017-07-02T03:46:46.748Z,13.58
2017-07-02T03:47:15.117Z,13.57
2017-07-02T03:47:43.214Z,13.53
2017-07-02T03:48:11.314Z,13.65
2017-07-02T03:48:39.560Z,13.57
2017-07-02T03:49:07.794Z,13.58
2017-07-02T03:49:36.013Z,13.58
2017-07-02T03:50:04.138Z,13.57
2017-07-02T03:50:32.291Z,13.69
2017-07-02T03:51:00.454Z,13.57
2017-07-02T03:51:28.663Z,13.58
2017-07-02T03:51:56.844Z,13.66
2017-07-02T03:52:25.008Z,13.6
2017-07-02T03:52:53.051Z,13.58
2017-07-02T03:53:21.262Z,13.58
2017-07-02T03:53:49.276Z,13.6
2017-07-02T03:54:17.366Z,13.55
2017-07-02T03:54:45.469Z,13.58
2017-07-02T03:55:13.489Z,13.6
2017-07-02T03:55:41.634Z,13.68
2017-07-02T03:56:09.743Z,13.65
2017-07-02T03:56:37.968Z,13.63
2017-07-02T03:57:06.361Z,13.68
2017-07-02T03:57:34.603Z,13.69
2017-07-02T03:58:02.831Z,13.69
2017-07-02T03:58:31.069Z,13.68
2017-07-02T03:58:59.261Z,13.62
2017-07-02T03:59:27.478Z,13.73
2017-07-02T03:59:55.698Z,13.7
2017-07-02T04:00:23.795Z,13.69
2017-07-02T04:00:51.901Z,13.68
2017-07-02T04:01:19.820Z,13.72
2017-07-02T04:01:48.062Z,13.72
2017-07-02T04:02:16.361Z,13.66
2017-07-02T04:02:44.466Z,13.73
2017-07-02T04:03:12.573Z,13.72
2017-07-02T04:03:40.790Z,13.78
2017-07-02T04:04:08.997Z,13.69
2017-07-02T04:04:37.124Z,13.63
2017-07-02T04:05:05.258Z,13.75
2017-07-02T04:05:33.302Z,13.7
2017-07-02T04:06:01.251Z,13.63
2017-07-02T04:06:29.403Z,13.72
2017-07-02T04:06:57.644Z,13.63
2017-07-02T04:07:25.941Z,13.66
2017-07-02T04:07:54.163Z,13.65
2017-07-02T04:08:22.342Z,13.65
2017-07-02T04:08:50.439Z,13.65
2017-07-02T04:09:18.611Z,13.65
2017-07-02T04:09:46.736Z,13.68
2017-07-02T04:10:14.994Z,13.66
2017-07-02T04:10:43.170Z,13.62
2017-07-02T04:11:11.357Z,13.66
2017-07-02T04:11:39.447Z,13.65
2017-07-02T04:12:07.500Z,13.65
2017-07-02T04:12:35.732Z,13.66
2017-07-02T04:13:03.754Z,13.65
2017-07-02T04:13:31.897Z,13.57
2017-07-02T04:14:00.175Z,13.57
2017-07-02T04:14:28.380Z,13.65
2017-07-02T04:14:56.577Z,13.65
2017-07-02T04:15:24.799Z,13.7
2017-07-02T04:15:52.924Z,13.66
2017-07-02T04:16:21.147Z,13.54
2017-07-02T04:16:49.324Z,13.57
2017-07-02T04:17:17.559Z,13.66
2017-07-02T04:17:45.694Z,13.58
2017-07-02T04:18:13.882Z,13.65
2017-07-02T04:18:42.052Z,13.58
2017-07-02T04:19:10.222Z,13.6
2017-07-02T04:19:38.375Z,13.7
2017-07-02T04:20:06.456Z,13.68
2017-07-02T04:20:34.569Z,13.57
2017-07-02T04:21:02.797Z,13.66
2017-07-02T04:21:30.736Z,13.6
2017-07-02T04:21:58.837Z,13.62
2017-07-02T04:22:27.116Z,13.69
2017-07-02T04:22:55.210Z,13.6
2017-07-02T04:23:23.448Z,13.58
2017-07-02T04:23:51.676Z,13.65
2017-07-02T04:24:19.896Z,13.62
2017-07-02T04:24:48.148Z,13.66
2017-07-02T04:25:16.341Z,13.62
2017-07-02T04:25:44.263Z,13.6
2017-07-02T04:26:12.457Z,13.57
2017-07-02T04:26:40.493Z,13.57
2017-07-02T04:27:08.735Z,13.58
2017-07-02T04:27:37.013Z,13.57
2017-07-02T04:28:05.286Z,13.47
2017-07-02T04:28:33.433Z,13.54
2017-07-02T04:29:01.682Z,13.48
2017-07-02T04:29:29.911Z,13.54
2017-07-02T04:29:58.087Z,13.51
2017-07-02T04:30:26.328Z,13.48
2017-07-02T04:30:54.528Z,13.48
2017-07-02T04:31:22.712Z,13.47
2017-07-02T04:31:50.661Z,13.5
2017-07-02T04:32:18.811Z,13.47
2017-07-02T04:32:47.150Z,13.35
2017-07-02T04:33:15.380Z,13.39
2017-07-02T04:33:43.467Z,13.4
2017-07-02T04:34:11.492Z,13.44
2017-07-02T04:34:39.670Z,13.45
2017-07-02T04:35:07.726Z,13.29
2017-07-02T04:35:35.952Z,13.29
2017-07-02T04:36:04.070Z,13.25
2017-07-02T04:36:32.300Z,13.24
2017-07-02T04:37:00.446Z,13.2
2017-07-02T04:37:28.662Z,13.16
2017-07-02T04:37:56.657Z,13.07
2017-07-02T04:38:24.779Z,13.09
2017-07-02T04:38:52.893Z,13.03
2017-07-02T04:39:21.071Z,13.07
2017-07-02T04:39:49.224Z,12.95
2017-07-02T04:40:17.470Z,13.01
2017-07-02T04:40:45.599Z,12.99
2017-07-02T04:41:13.817Z,12.96
2017-07-02T04:41:41.915Z,12.94
2017-07-02T04:42:10.154Z,12.96
2017-07-02T04:42:38.499Z,12.94
2017-07-02T04:43:06.732Z,12.91
2017-07-02T04:43:34.844Z,12.88
2017-07-02T04:44:02.836Z,12.84
2017-07-02T04:44:30.966Z,12.88
2017-07-02T04:44:59.094Z,12.89
2017-07-02T04:45:27.206Z,12.84
2017-07-02T04:45:55.340Z,12.73
2017-07-02T04:46:23.295Z,12.8
2017-07-02T04:46:51.339Z,12.76
2017-07-02T04:47:19.524Z,12.74
2017-07-02T04:47:47.851Z,12.77
2017-07-02T04:48:15.973Z,12.83
2017-07-02T04:48:44.070Z,12.77
2017-07-02T04:49:12.041Z,12.74
2017-07-02T04:49:40.178Z,12.81
2017-07-02T04:50:08.352Z,12.83
2017-07-02T04:50:36.376Z,12.8
2017-07-02T04:51:04.374Z,12.8
2017-07-02T04:51:32.603Z,12.81
2017-07-02T04:52:00.804Z,12.84
2017-07-02T04:52:29.018Z,12.84
2017-07-02T04:52:57.269Z,12.81
2017-07-02T04:53:25.278Z,12.88
2017-07-02T04:53:53.515Z,12.81
2017-07-02T04:54:21.714Z,12.77
2017-07-02T04:54:49.964Z,12.8
2017-07-02T04:55:17.981Z,12.66
2017-07-02T04:55:46.104Z,12.83
2017-07-02T04:56:14.132Z,12.76
2017-07-02T04:56:42.320Z,12.7
2017-07-02T04:57:10.523Z,12.76
2017-07-02T04:57:38.529Z,12.74
2017-07-02T04:58:06.756Z,12.76
2017-07-02T04:58:34.995Z,12.73
2017-07-02T04:59:03.106Z,12.77
2017-07-02T04:59:31.249Z,12.8
2017-07-02T04:59:59.197Z,12.77
2017-07-02T05:00:27.319Z,12.7
2017-07-02T05:00:55.429Z,12.73
2017-07-02T05:01:23.582Z,12.71
2017-07-02T05:01:51.603Z,12.77
2017-07-02T05:02:19.752Z,12.71
2017-07-02T05:02:47.843Z,12.76
2017-07-02T05:03:16.190Z,12.7
2017-07-02T05:03:44.390Z,12.73
2017-07-02T05:04:12.535Z,12.71
2017-07-02T05:04:40.549Z,12.77
2017-07-02T05:05:08.718Z,12.69
2017-07-02T05:05:36.705Z,12.76
2017-07-02T05:06:04.741Z,12.61
2017-07-02T05:06:32.964Z,12.71
2017-07-02T05:07:01.101Z,12.77
2017-07-02T05:07:29.123Z,12.69
2017-07-02T05:07:57.412Z,12.78
2017-07-02T05:08:25.501Z,12.76
2017-07-02T05:08:53.541Z,12.73
2017-07-02T05:09:21.750Z,12.76
2017-07-02T05:09:49.918Z,12.76
2017-07-02T05:10:17.831Z,12.77
2017-07-02T05:10:46.054Z,12.78
2017-07-02T05:11:14.229Z,12.77
2017-07-02T05:11:42.470Z,12.66
2017-07-02T05:12:10.698Z,12.7
2017-07-02T05:12:38.944Z,12.7
2017-07-02T05:13:07.237Z,12.77
2017-07-02T05:13:35.378Z,12.76
2017-07-02T05:14:03.392Z,12.74
2017-07-02T05:14:31.435Z,12.8
2017-07-02T05:14:59.580Z,12.74
2017-07-02T05:15:27.779Z,12.78
2017-07-02T05:15:55.886Z,12.73
2017-07-02T05:16:23.984Z,12.83
2017-07-02T05:16:51.903Z,12.81
2017-07-02T05:17:20.141Z,12.81
2017-07-02T05:17:48.298Z,12.77
2017-07-02T05:18:16.597Z,12.83
2017-07-02T05:18:44.707Z,12.8
2017-07-02T05:19:12.704Z,12.73
2017-07-02T05:19:40.898Z,12.83
2017-07-02T05:20:09.161Z,12.78
2017-07-02T05:20:37.415Z,12.71
2017-07-02T05:21:05.617Z,12.65
2017-07-02T05:21:33.722Z,12.69
2017-07-02T05:22:01.901Z,12.8
2017-07-02T05:22:30.068Z,12.7
2017-07-02T05:22:58.044Z,12.81
2017-07-02T05:23:26.265Z,12.81
2017-07-02T05:23:54.475Z,12.86
2017-07-02T05:24:22.622Z,12.86
2017-07-02T05:24:50.698Z,12.86
2017-07-02T05:25:18.841Z,12.89
2017-07-02T05:25:46.966Z,12.83
2017-07-02T05:26:15.127Z,12.88
2017-07-02T05:26:43.339Z,12.83
2017-07-02T05:27:11.463Z,12.95
2017-07-02T05:27:39.501Z,12.95
2017-07-02T05:28:07.583Z,12.96
2017-07-02T05:28:35.826Z,12.96
2017-07-02T05:29:03.965Z,12.88
2017-07-02T05:29:32.017Z,12.98
2017-07-02T05:30:00.013Z,12.92
2017-07-02T05:30:28.227Z,13.03
2017-07-02T05:30:56.268Z,12.95
2017-07-02T05:31:24.345Z,12.86
2017-07-02T05:31:52.529Z,12.96
2017-07-02T05:32:20.651Z,12.98
2017-07-02T05:32:48.866Z,12.86
2017-07-02T05:33:17.036Z,12.94
2017-07-02T05:33:45.241Z,12.96
2017-07-02T05:34:13.375Z,12.95
2017-07-02T05:34:41.441Z,12.95
2017-07-02T05:35:09.661Z,12.98
2017-07-02T05:35:37.727Z,12.86
2017-07-02T05:36:05.831Z,13.01
2017-07-02T05:36:34.031Z,12.96
2017-07-02T05:37:02.243Z,12.94
2017-07-02T05:37:30.181Z,12.94
2017-07-02T05:37:58.384Z,12.91
2017-07-02T05:38:26.654Z,12.99
2017-07-02T05:38:54.841Z,12.95
2017-07-02T05:39:22.955Z,12.95
2017-07-02T05:39:51.171Z,12.89
2017-07-02T05:40:19.311Z,12.98
2017-07-02T05:40:47.520Z,12.99
2017-07-02T05:41:15.501Z,12.92
2017-07-02T05:41:43.618Z,12.94
2017-07-02T05:42:11.815Z,12.99
2017-07-02T05:42:40.027Z,12.88
2017-07-02T05:43:08.130Z,12.95
2017-07-02T05:43:36.376Z,12.95
2017-07-02T05:44:04.449Z,12.84
2017-07-02T05:44:32.682Z,12.83
2017-07-02T05:45:00.823Z,12.91
2017-07-02T05:45:28.964Z,12.89
2017-07-02T05:45:57.165Z,12.86
2017-07-02T05:46:25.232Z,12.86
2017-07-02T05:46:53.337Z,12.84
2017-07-02T05:47:21.595Z,12.91
2017-07-02T05:47:49.699Z,12.8
2017-07-02T05:48:17.823Z,12.84
2017-07-02T05:48:46.039Z,12.78
2017-07-02T05:49:14.156Z,12.8
2017-07-02T05:49:42.198Z,12.8
2017-07-02T05:50:10.332Z,12.89
2017-07-02T05:50:38.328Z,12.8
2017-07-02T05:51:06.550Z,12.74
2017-07-02T05:51:34.661Z,12.83
2017-07-02T05:52:02.722Z,12.74
2017-07-02T05:52:30.962Z,12.78
2017-07-02T05:52:59.007Z,12.7
2017-07-02T05:53:27.111Z,12.7
2017-07-02T05:53:55.318Z,12.73
2017-07-02T05:54:23.557Z,12.63
2017-07-02T05:54:51.809Z,12.63
2017-07-02T05:55:19.870Z,12.66
2017-07-02T05:55:47.995Z,12.62
2017-07-02T05:56:16.024Z,12.66
2017-07-02T05:56:44.267Z,12.65
2017-07-02T05:57:12.444Z,12.62
2017-07-02T05:57:41.048Z,12.56
2017-07-02T05:58:09.147Z,12.56
2017-07-02T05:58:37.271Z,12.56
2017-07-02T05:59:05.445Z,12.59
2017-07-02T05:59:33.521Z,12.47
2017-07-02T06:00:01.539Z,12.44
2017-07-02T06:00:29.753Z,12.47
2017-07-02T06:00:57.931Z,12.51
2017-07-02T06:01:26.147Z,12.47
2017-07-02T06:01:54.380Z,12.51
2017-07-02T06:02:22.468Z,12.44
2017-07-02T06:02:50.692Z,12.45
2017-07-02T06:03:18.776Z,12.44
2017-07-02T06:03:46.936Z,12.47